sensor_id;sensor_type;location;lat;lon;timestamp;P1;durP1;ratioP1;P2;durP2;ratioP2
16312;SDS011;8265;52.622;13.296;2022-10-31T00:05:08;39.70;;;22.00;;
16312;SDS011;8265;52.622;13.296;2022-10-31T00:10:29;29.70;;;22.60;;
16312;SDS011;8265;52.622;13.296;2022-10-31T00:15:50;44.90;;;32.50;;
16312;SDS011;8265;52.622;13.296;2022-10-31T00:21:11;31.40;;;24.10;;
16312;SDS011;8265;52.622;13.296;2022-10-31T00:26:32;43.70;;;22.20;;
16312;SDS011;8265;52.622;13.296;2022-10-31T00:31:53;46.40;;;24.20;;
16312;SDS011;8265;52.622;13.296;2022-10-31T00:37:14;39.60;;;23.70;;
16312;SDS011;8265;52.622;13.296;2022-10-31T00:42:35;40.20;;;24.90;;
16312;SDS011;8265;52.622;13.296;2022-10-31T00:47:56;45.70;;;33.20;;
16312;SDS011;8265;52.622;13.296;2022-10-31T00:53:17;43.10;;;25.70;;
16312;SDS011;8265;52.622;13.296;2022-10-31T00:58:37;35.80;;;24.00;;
16312;SDS011;8265;52.622;13.296;2022-10-31T01:03:58;41.80;;;24.20;;
16312;SDS011;8265;52.622;13.296;2022-10-31T01:09:19;53.70;;;37.70;;
16312;SDS011;8265;52.622;13.296;2022-10-31T01:14:43;48.20;;;26.30;;
16312;SDS011;8265;52.622;13.296;2022-10-31T01:20:02;52.50;;;36.50;;
16312;SDS011;8265;52.622;13.296;2022-10-31T01:25:22;51.20;;;34.20;;
16312;SDS011;8265;52.622;13.296;2022-10-31T01:30:43;66.20;;;26.40;;
16312;SDS011;8265;52.622;13.296;2022-10-31T01:36:11;38.10;;;23.90;;
16312;SDS011;8265;52.622;13.296;2022-10-31T01:41:26;40.10;;;25.40;;
16312;SDS011;8265;52.622;13.296;2022-10-31T01:46:47;50.80;;;36.20;;
16312;SDS011;8265;52.622;13.296;2022-10-31T01:52:09;47.40;;;25.90;;
16312;SDS011;8265;52.622;13.296;2022-10-31T01:57:28;46.90;;;34.70;;
16312;SDS011;8265;52.622;13.296;2022-10-31T02:02:49;36.50;;;25.30;;
16312;SDS011;8265;52.622;13.296;2022-10-31T02:08:11;44.80;;;23.60;;
16312;SDS011;8265;52.622;13.296;2022-10-31T02:13:31;50.80;;;25.40;;
16312;SDS011;8265;52.622;13.296;2022-10-31T02:18:52;54.70;;;39.30;;
16312;SDS011;8265;52.622;13.296;2022-10-31T02:24:17;48.80;;;35.50;;
16312;SDS011;8265;52.622;13.296;2022-10-31T02:34:57;38.30;;;21.70;;
16312;SDS011;8265;52.622;13.296;2022-10-31T02:40:17;57.40;;;24.70;;
16312;SDS011;8265;52.622;13.296;2022-10-31T02:45:39;35.70;;;23.90;;
16312;SDS011;8265;52.622;13.296;2022-10-31T02:50:59;51.90;;;35.50;;
16312;SDS011;8265;52.622;13.296;2022-10-31T02:56:19;33.40;;;21.80;;
16312;SDS011;8265;52.622;13.296;2022-10-31T03:01:46;50.40;;;34.90;;
16312;SDS011;8265;52.622;13.296;2022-10-31T03:07:03;38.50;;;26.30;;
16312;SDS011;8265;52.622;13.296;2022-10-31T03:12:24;42.90;;;26.80;;
16312;SDS011;8265;52.622;13.296;2022-10-31T03:17:45;50.30;;;35.90;;
16312;SDS011;8265;52.622;13.296;2022-10-31T03:23:04;38.50;;;22.40;;
16312;SDS011;8265;52.622;13.296;2022-10-31T03:28:26;73.80;;;50.20;;
16312;SDS011;8265;52.622;13.296;2022-10-31T03:33:46;39.00;;;27.10;;
16312;SDS011;8265;52.622;13.296;2022-10-31T03:39:07;53.80;;;28.40;;
16312;SDS011;8265;52.622;13.296;2022-10-31T03:44:27;59.80;;;39.00;;
16312;SDS011;8265;52.622;13.296;2022-10-31T03:49:48;35.60;;;23.80;;
16312;SDS011;8265;52.622;13.296;2022-10-31T03:55:12;40.90;;;23.50;;
16312;SDS011;8265;52.622;13.296;2022-10-31T04:00:30;39.70;;;22.00;;
16312;SDS011;8265;52.622;13.296;2022-10-31T04:05:52;37.50;;;20.90;;
16312;SDS011;8265;52.622;13.296;2022-10-31T04:11:12;38.00;;;21.60;;
16312;SDS011;8265;52.622;13.296;2022-10-31T04:16:33;35.20;;;23.90;;
16312;SDS011;8265;52.622;13.296;2022-10-31T04:21:54;69.80;;;26.10;;
16312;SDS011;8265;52.622;13.296;2022-10-31T04:27:15;42.60;;;23.90;;
16312;SDS011;8265;52.622;13.296;2022-10-31T04:32:36;33.60;;;19.80;;
16312;SDS011;8265;52.622;13.296;2022-10-31T04:37:57;179.90;;;148.10;;
16312;SDS011;8265;52.622;13.296;2022-10-31T04:43:18;33.40;;;16.90;;
16312;SDS011;8265;52.622;13.296;2022-10-31T04:48:39;31.50;;;18.60;;
16312;SDS011;8265;52.622;13.296;2022-10-31T04:54:00;37.50;;;26.30;;
16312;SDS011;8265;52.622;13.296;2022-10-31T04:59:21;36.20;;;18.60;;
16312;SDS011;8265;52.622;13.296;2022-10-31T05:04:42;34.60;;;18.00;;
16312;SDS011;8265;52.622;13.296;2022-10-31T05:10:03;30.90;;;18.00;;
16312;SDS011;8265;52.622;13.296;2022-10-31T05:15:24;47.40;;;29.30;;
16312;SDS011;8265;52.622;13.296;2022-10-31T05:20:45;43.90;;;20.20;;
16312;SDS011;8265;52.622;13.296;2022-10-31T05:26:06;36.10;;;18.60;;
16312;SDS011;8265;52.622;13.296;2022-10-31T05:31:27;43.00;;;27.30;;
16312;SDS011;8265;52.622;13.296;2022-10-31T05:33:08;43.80;;;27.40;;
16312;SDS011;8265;52.622;13.296;2022-10-31T05:38:28;34.10;;;20.70;;
16312;SDS011;8265;52.622;13.296;2022-10-31T05:43:49;32.40;;;17.70;;
16312;SDS011;8265;52.622;13.296;2022-10-31T05:49:10;102.30;;;77.60;;
16312;SDS011;8265;52.622;13.296;2022-10-31T05:54:31;31.20;;;23.80;;
16312;SDS011;8265;52.622;13.296;2022-10-31T05:59:52;24.60;;;17.20;;
16312;SDS011;8265;52.622;13.296;2022-10-31T06:05:14;40.10;;;27.30;;
16312;SDS011;8265;52.622;13.296;2022-10-31T06:10:34;33.30;;;23.60;;
16312;SDS011;8265;52.622;13.296;2022-10-31T06:15:55;21.80;;;16.20;;
16312;SDS011;8265;52.622;13.296;2022-10-31T06:21:16;33.60;;;15.60;;
16312;SDS011;8265;52.622;13.296;2022-10-31T06:26:37;41.90;;;27.50;;
16312;SDS011;8265;52.622;13.296;2022-10-31T06:31:58;41.40;;;21.10;;
16312;SDS011;8265;52.622;13.296;2022-10-31T06:37:19;50.90;;;30.70;;
16312;SDS011;8265;52.622;13.296;2022-10-31T06:42:40;85.10;;;63.70;;
16312;SDS011;8265;52.622;13.296;2022-10-31T06:48:01;32.30;;;23.10;;
16312;SDS011;8265;52.622;13.296;2022-10-31T06:53:22;31.80;;;20.10;;
16312;SDS011;8265;52.622;13.296;2022-10-31T06:58:43;39.00;;;22.60;;
16312;SDS011;8265;52.622;13.296;2022-10-31T07:04:04;55.70;;;22.10;;
16312;SDS011;8265;52.622;13.296;2022-10-31T07:09:25;43.10;;;23.40;;
16312;SDS011;8265;52.622;13.296;2022-10-31T07:14:46;32.00;;;19.00;;
16312;SDS011;8265;52.622;13.296;2022-10-31T07:20:08;42.90;;;23.90;;
16312;SDS011;8265;52.622;13.296;2022-10-31T07:25:28;46.50;;;20.60;;
16312;SDS011;8265;52.622;13.296;2022-10-31T07:30:50;33.50;;;19.50;;
16312;SDS011;8265;52.622;13.296;2022-10-31T07:36:10;37.90;;;19.40;;
16312;SDS011;8265;52.622;13.296;2022-10-31T07:41:31;28.30;;;17.00;;
16312;SDS011;8265;52.622;13.296;2022-10-31T07:46:52;33.10;;;17.70;;
16312;SDS011;8265;52.622;13.296;2022-10-31T07:52:13;34.10;;;18.80;;
16312;SDS011;8265;52.622;13.296;2022-10-31T07:57:34;35.50;;;19.70;;
16312;SDS011;8265;52.622;13.296;2022-10-31T08:02:58;25.40;;;18.20;;
16312;SDS011;8265;52.622;13.296;2022-10-31T08:08:16;35.60;;;17.70;;
16312;SDS011;8265;52.622;13.296;2022-10-31T08:13:36;36.90;;;20.90;;
16312;SDS011;8265;52.622;13.296;2022-10-31T08:18:57;39.50;;;22.70;;
16312;SDS011;8265;52.622;13.296;2022-10-31T08:24:18;33.60;;;20.30;;
16312;SDS011;8265;52.622;13.296;2022-10-31T08:29:39;29.30;;;19.20;;
16312;SDS011;8265;52.622;13.296;2022-10-31T08:35:00;45.50;;;28.70;;
16312;SDS011;8265;52.622;13.296;2022-10-31T08:40:21;48.40;;;28.10;;
16312;SDS011;8265;52.622;13.296;2022-10-31T08:45:43;141.10;;;83.80;;
16312;SDS011;8265;52.622;13.296;2022-10-31T08:51:03;43.10;;;27.30;;
16312;SDS011;8265;52.622;13.296;2022-10-31T08:56:24;36.20;;;18.70;;
16312;SDS011;8265;52.622;13.296;2022-10-31T09:01:45;29.00;;;18.80;;
16312;SDS011;8265;52.622;13.296;2022-10-31T09:07:06;39.80;;;20.80;;
16312;SDS011;8265;52.622;13.296;2022-10-31T09:12:27;41.30;;;25.40;;
16312;SDS011;8265;52.622;13.296;2022-10-31T09:17:48;37.80;;;19.30;;
16312;SDS011;8265;52.622;13.296;2022-10-31T09:23:10;32.90;;;18.90;;
16312;SDS011;8265;52.622;13.296;2022-10-31T09:28:30;45.50;;;19.30;;
16312;SDS011;8265;52.622;13.296;2022-10-31T09:33:53;51.70;;;22.00;;
16312;SDS011;8265;52.622;13.296;2022-10-31T09:39:12;30.40;;;21.90;;
16312;SDS011;8265;52.622;13.296;2022-10-31T09:44:36;36.80;;;25.30;;
16312;SDS011;8265;52.622;13.296;2022-10-31T09:50:02;25.50;;;15.10;;
16312;SDS011;8265;52.622;13.296;2022-10-31T09:55:16;33.40;;;19.50;;
16312;SDS011;8265;52.622;13.296;2022-10-31T10:00:36;47.20;;;23.50;;
16312;SDS011;8265;52.622;13.296;2022-10-31T10:05:59;45.00;;;22.30;;
16312;SDS011;8265;52.622;13.296;2022-10-31T10:11:25;34.10;;;23.10;;
16312;SDS011;8265;52.622;13.296;2022-10-31T10:16:42;36.30;;;19.20;;
16312;SDS011;8265;52.622;13.296;2022-10-31T10:22:01;38.70;;;23.40;;
16312;SDS011;8265;52.622;13.296;2022-10-31T10:27:22;25.00;;;18.00;;
16312;SDS011;8265;52.622;13.296;2022-10-31T10:32:43;25.90;;;18.60;;
16312;SDS011;8265;52.622;13.296;2022-10-31T10:38:04;27.00;;;18.10;;
16312;SDS011;8265;52.622;13.296;2022-10-31T10:43:26;33.50;;;17.90;;
16312;SDS011;8265;52.622;13.296;2022-10-31T10:48:45;34.40;;;20.10;;
16312;SDS011;8265;52.622;13.296;2022-10-31T10:54:10;29.60;;;17.70;;
16312;SDS011;8265;52.622;13.296;2022-10-31T10:59:27;36.60;;;21.20;;
16312;SDS011;8265;52.622;13.296;2022-10-31T11:04:49;30.90;;;18.80;;
16312;SDS011;8265;52.622;13.296;2022-10-31T11:10:12;35.40;;;21.50;;
16312;SDS011;8265;52.622;13.296;2022-10-31T11:15:31;53.60;;;25.60;;
16312;SDS011;8265;52.622;13.296;2022-10-31T11:20:52;35.90;;;18.30;;
16312;SDS011;8265;52.622;13.296;2022-10-31T11:26:18;34.30;;;20.00;;
16312;SDS011;8265;52.622;13.296;2022-10-31T11:31:32;39.30;;;20.30;;
16312;SDS011;8265;52.622;13.296;2022-10-31T11:36:54;38.00;;;20.60;;
16312;SDS011;8265;52.622;13.296;2022-10-31T11:42:14;45.70;;;26.90;;
16312;SDS011;8265;52.622;13.296;2022-10-31T11:47:35;49.90;;;23.30;;
16312;SDS011;8265;52.622;13.296;2022-10-31T11:52:56;31.70;;;16.90;;
16312;SDS011;8265;52.622;13.296;2022-10-31T11:58:21;38.90;;;25.80;;
16312;SDS011;8265;52.622;13.296;2022-10-31T12:03:44;27.00;;;19.00;;
16312;SDS011;8265;52.622;13.296;2022-10-31T12:09:00;45.50;;;27.60;;
16312;SDS011;8265;52.622;13.296;2022-10-31T12:14:25;32.60;;;20.60;;
16312;SDS011;8265;52.622;13.296;2022-10-31T12:19:42;34.50;;;20.60;;
16312;SDS011;8265;52.622;13.296;2022-10-31T12:25:10;41.20;;;22.50;;
16312;SDS011;8265;52.622;13.296;2022-10-31T12:30:24;36.50;;;20.80;;
16312;SDS011;8265;52.622;13.296;2022-10-31T12:35:45;42.10;;;23.90;;
16312;SDS011;8265;52.622;13.296;2022-10-31T12:41:14;30.70;;;22.60;;
16312;SDS011;8265;52.622;13.296;2022-10-31T12:46:28;33.60;;;21.30;;
16312;SDS011;8265;52.622;13.296;2022-10-31T12:51:49;38.50;;;22.00;;
16312;SDS011;8265;52.622;13.296;2022-10-31T12:57:10;48.10;;;24.00;;
16312;SDS011;8265;52.622;13.296;2022-10-31T13:02:30;37.00;;;24.80;;
16312;SDS011;8265;52.622;13.296;2022-10-31T13:07:52;45.30;;;25.90;;
16312;SDS011;8265;52.622;13.296;2022-10-31T13:13:12;47.10;;;24.60;;
16312;SDS011;8265;52.622;13.296;2022-10-31T13:18:33;32.60;;;23.60;;
16312;SDS011;8265;52.622;13.296;2022-10-31T13:23:53;36.80;;;24.20;;
16312;SDS011;8265;52.622;13.296;2022-10-31T13:29:15;48.80;;;32.90;;
16312;SDS011;8265;52.622;13.296;2022-10-31T13:34:36;51.70;;;35.90;;
16312;SDS011;8265;52.622;13.296;2022-10-31T13:40:00;54.40;;;37.70;;
16312;SDS011;8265;52.622;13.296;2022-10-31T13:45:17;60.50;;;39.80;;
16312;SDS011;8265;52.622;13.296;2022-10-31T13:50:38;63.00;;;41.20;;
16312;SDS011;8265;52.622;13.296;2022-10-31T13:56:02;62.70;;;34.20;;
16312;SDS011;8265;52.622;13.296;2022-10-31T14:01:20;74.60;;;34.10;;
16312;SDS011;8265;52.622;13.296;2022-10-31T14:06:44;67.00;;;36.70;;
16312;SDS011;8265;52.622;13.296;2022-10-31T14:12:02;63.70;;;35.90;;
16312;SDS011;8265;52.622;13.296;2022-10-31T14:17:23;74.30;;;39.60;;
16312;SDS011;8265;52.622;13.296;2022-10-31T14:22:43;80.40;;;43.20;;
16312;SDS011;8265;52.622;13.296;2022-10-31T14:28:17;74.50;;;40.00;;
16312;SDS011;8265;52.622;13.296;2022-10-31T14:33:26;91.50;;;41.20;;
16312;SDS011;8265;52.622;13.296;2022-10-31T14:38:49;79.30;;;39.80;;
16312;SDS011;8265;52.622;13.296;2022-10-31T14:44:15;76.30;;;42.40;;
16312;SDS011;8265;52.622;13.296;2022-10-31T14:49:41;94.90;;;43.60;;
16312;SDS011;8265;52.622;13.296;2022-10-31T14:54:50;89.40;;;37.80;;
16312;SDS011;8265;52.622;13.296;2022-10-31T15:00:15;98.30;;;46.00;;
16312;SDS011;8265;52.622;13.296;2022-10-31T15:05:31;99.70;;;45.40;;
16312;SDS011;8265;52.622;13.296;2022-10-31T15:10:52;118.90;;;66.70;;
16312;SDS011;8265;52.622;13.296;2022-10-31T15:16:14;81.00;;;43.90;;
16312;SDS011;8265;52.622;13.296;2022-10-31T15:21:34;68.00;;;39.40;;
16312;SDS011;8265;52.622;13.296;2022-10-31T15:26:55;122.90;;;46.30;;
16312;SDS011;8265;52.622;13.296;2022-10-31T15:32:19;111.00;;;47.30;;
16312;SDS011;8265;52.622;13.296;2022-10-31T15:37:37;106.20;;;48.70;;
16312;SDS011;8265;52.622;13.296;2022-10-31T15:42:58;135.50;;;94.60;;
16312;SDS011;8265;52.622;13.296;2022-10-31T15:48:21;88.90;;;39.10;;
16312;SDS011;8265;52.622;13.296;2022-10-31T15:53:43;91.50;;;56.70;;
16312;SDS011;8265;52.622;13.296;2022-10-31T15:59:01;77.20;;;39.20;;
16312;SDS011;8265;52.622;13.296;2022-10-31T16:04:22;113.70;;;64.90;;
16312;SDS011;8265;52.622;13.296;2022-10-31T16:09:49;96.50;;;63.70;;
16312;SDS011;8265;52.622;13.296;2022-10-31T16:15:04;88.70;;;42.90;;
16312;SDS011;8265;52.622;13.296;2022-10-31T16:20:25;110.90;;;44.20;;
16312;SDS011;8265;52.622;13.296;2022-10-31T16:25:45;166.30;;;52.00;;
16312;SDS011;8265;52.622;13.296;2022-10-31T16:31:13;220.10;;;57.50;;
16312;SDS011;8265;52.622;13.296;2022-10-31T16:36:31;201.30;;;57.10;;
16312;SDS011;8265;52.622;13.296;2022-10-31T16:41:50;172.30;;;58.90;;
16312;SDS011;8265;52.622;13.296;2022-10-31T16:47:12;155.40;;;54.30;;
16312;SDS011;8265;52.622;13.296;2022-10-31T16:52:30;82.00;;;41.20;;
16312;SDS011;8265;52.622;13.296;2022-10-31T16:57:52;158.00;;;76.70;;
16312;SDS011;8265;52.622;13.296;2022-10-31T17:03:12;129.10;;;60.10;;
16312;SDS011;8265;52.622;13.296;2022-10-31T17:08:33;105.00;;;45.10;;
16312;SDS011;8265;52.622;13.296;2022-10-31T17:13:54;106.30;;;45.90;;
16312;SDS011;8265;52.622;13.296;2022-10-31T17:19:15;113.90;;;66.20;;
16312;SDS011;8265;52.622;13.296;2022-10-31T17:24:36;138.00;;;72.10;;
16312;SDS011;8265;52.622;13.296;2022-10-31T17:29:57;118.60;;;47.10;;
16312;SDS011;8265;52.622;13.296;2022-10-31T17:35:18;145.70;;;68.90;;
16312;SDS011;8265;52.622;13.296;2022-10-31T17:40:39;127.90;;;46.10;;
16312;SDS011;8265;52.622;13.296;2022-10-31T17:46:00;140.00;;;42.70;;
16312;SDS011;8265;52.622;13.296;2022-10-31T17:51:21;156.30;;;44.30;;
16312;SDS011;8265;52.622;13.296;2022-10-31T17:56:42;90.70;;;40.30;;
16312;SDS011;8265;52.622;13.296;2022-10-31T18:02:03;88.50;;;40.40;;
16312;SDS011;8265;52.622;13.296;2022-10-31T18:07:24;163.00;;;69.20;;
16312;SDS011;8265;52.622;13.296;2022-10-31T18:12:45;264.40;;;82.50;;
16312;SDS011;8265;52.622;13.296;2022-10-31T18:18:06;189.10;;;78.30;;
16312;SDS011;8265;52.622;13.296;2022-10-31T18:23:27;115.10;;;45.50;;
16312;SDS011;8265;52.622;13.296;2022-10-31T18:28:47;113.90;;;43.60;;
16312;SDS011;8265;52.622;13.296;2022-10-31T18:34:08;84.90;;;39.00;;
16312;SDS011;8265;52.622;13.296;2022-10-31T18:39:29;150.90;;;93.50;;
16312;SDS011;8265;52.622;13.296;2022-10-31T18:44:50;149.40;;;66.50;;
16312;SDS011;8265;52.622;13.296;2022-10-31T18:50:11;154.00;;;67.90;;
16312;SDS011;8265;52.622;13.296;2022-10-31T18:55:32;93.70;;;39.50;;
16312;SDS011;8265;52.622;13.296;2022-10-31T19:00:54;93.20;;;35.60;;
16312;SDS011;8265;52.622;13.296;2022-10-31T19:06:14;96.20;;;39.20;;
16312;SDS011;8265;52.622;13.296;2022-10-31T19:11:36;144.40;;;72.70;;
16312;SDS011;8265;52.622;13.296;2022-10-31T19:16:56;249.10;;;58.40;;
16312;SDS011;8265;52.622;13.296;2022-10-31T19:22:17;154.90;;;72.30;;
16312;SDS011;8265;52.622;13.296;2022-10-31T19:27:38;200.00;;;79.20;;
16312;SDS011;8265;52.622;13.296;2022-10-31T19:32:59;174.50;;;75.90;;
16312;SDS011;8265;52.622;13.296;2022-10-31T19:38:20;83.60;;;42.10;;
16312;SDS011;8265;52.622;13.296;2022-10-31T19:43:41;199.50;;;77.70;;
16312;SDS011;8265;52.622;13.296;2022-10-31T19:49:02;137.00;;;50.30;;
16312;SDS011;8265;52.622;13.296;2022-10-31T19:54:23;187.70;;;56.00;;
16312;SDS011;8265;52.622;13.296;2022-10-31T19:59:44;121.80;;;49.20;;
16312;SDS011;8265;52.622;13.296;2022-10-31T20:05:06;198.70;;;91.10;;
16312;SDS011;8265;52.622;13.296;2022-10-31T20:10:26;79.50;;;40.20;;
16312;SDS011;8265;52.622;13.296;2022-10-31T20:15:47;167.10;;;77.40;;
16312;SDS011;8265;52.622;13.296;2022-10-31T20:21:09;161.60;;;112.70;;
16312;SDS011;8265;52.622;13.296;2022-10-31T20:26:29;112.40;;;61.30;;
16312;SDS011;8265;52.622;13.296;2022-10-31T20:31:50;124.20;;;60.70;;
16312;SDS011;8265;52.622;13.296;2022-10-31T20:37:11;165.80;;;74.20;;
16312;SDS011;8265;52.622;13.296;2022-10-31T20:42:32;80.10;;;36.90;;
16312;SDS011;8265;52.622;13.296;2022-10-31T20:47:53;86.50;;;38.40;;
16312;SDS011;8265;52.622;13.296;2022-10-31T20:53:14;52.30;;;35.70;;
16312;SDS011;8265;52.622;13.296;2022-10-31T20:58:35;103.60;;;42.60;;
16312;SDS011;8265;52.622;13.296;2022-10-31T21:03:56;106.20;;;43.60;;
16312;SDS011;8265;52.622;13.296;2022-10-31T21:09:17;81.90;;;41.80;;
16312;SDS011;8265;52.622;13.296;2022-10-31T21:14:38;115.30;;;66.20;;
16312;SDS011;8265;52.622;13.296;2022-10-31T21:19:59;61.90;;;37.00;;
16312;SDS011;8265;52.622;13.296;2022-10-31T21:25:20;87.00;;;45.40;;
16312;SDS011;8265;52.622;13.296;2022-10-31T21:30:41;55.10;;;34.60;;
16312;SDS011;8265;52.622;13.296;2022-10-31T21:36:02;55.90;;;33.60;;
16312;SDS011;8265;52.622;13.296;2022-10-31T21:41:23;103.70;;;61.00;;
16312;SDS011;8265;52.622;13.296;2022-10-31T21:46:43;62.40;;;37.20;;
16312;SDS011;8265;52.622;13.296;2022-10-31T21:52:04;88.10;;;57.10;;
16312;SDS011;8265;52.622;13.296;2022-10-31T21:57:25;66.00;;;40.20;;
16312;SDS011;8265;52.622;13.296;2022-10-31T22:02:46;53.10;;;34.00;;
16312;SDS011;8265;52.622;13.296;2022-10-31T22:08:07;76.40;;;38.90;;
16312;SDS011;8265;52.622;13.296;2022-10-31T22:13:29;65.00;;;37.40;;
16312;SDS011;8265;52.622;13.296;2022-10-31T22:15:08;73.00;;;49.20;;
16312;SDS011;8265;52.622;13.296;2022-10-31T22:20:28;112.40;;;80.80;;
16312;SDS011;8265;52.622;13.296;2022-10-31T22:25:49;104.00;;;44.00;;
16312;SDS011;8265;52.622;13.296;2022-10-31T22:31:11;94.70;;;44.50;;
16312;SDS011;8265;52.622;13.296;2022-10-31T22:36:31;115.10;;;68.60;;
16312;SDS011;8265;52.622;13.296;2022-10-31T22:41:52;75.70;;;41.20;;
16312;SDS011;8265;52.622;13.296;2022-10-31T22:47:13;88.40;;;43.40;;
16312;SDS011;8265;52.622;13.296;2022-10-31T22:52:34;81.70;;;43.90;;
16312;SDS011;8265;52.622;13.296;2022-10-31T22:57:55;105.20;;;53.90;;
16312;SDS011;8265;52.622;13.296;2022-10-31T23:03:16;84.00;;;56.80;;
16312;SDS011;8265;52.622;13.296;2022-10-31T23:08:37;66.70;;;46.60;;
16312;SDS011;8265;52.622;13.296;2022-10-31T23:13:58;42.50;;;25.10;;
16312;SDS011;8265;52.622;13.296;2022-10-31T23:19:20;58.60;;;35.40;;
16312;SDS011;8265;52.622;13.296;2022-10-31T23:24:41;34.70;;;19.90;;
16312;SDS011;8265;52.622;13.296;2022-10-31T23:30:01;46.20;;;28.30;;
16312;SDS011;8265;52.622;13.296;2022-10-31T23:35:22;23.80;;;14.90;;
16312;SDS011;8265;52.622;13.296;2022-10-31T23:40:43;29.50;;;16.00;;
16312;SDS011;8265;52.622;13.296;2022-10-31T23:46:04;23.10;;;16.10;;
16312;SDS011;8265;52.622;13.296;2022-10-31T23:51:25;21.60;;;12.20;;
16312;SDS011;8265;52.622;13.296;2022-10-31T23:56:45;18.20;;;11.10;;
